sensor_id;sensor_type;location;lat;lon;timestamp;pressure;altitude;pressure_sealevel;temperature;humidity
70930;BME280;58588;48.102;19.682;2022-11-15T00:02:37;100017.34;;;2.12;100.00
70930;BME280;58588;48.102;19.682;2022-11-15T00:05:39;100015.28;;;2.27;100.00
70930;BME280;58588;48.102;19.682;2022-11-15T00:08:41;100020.88;;;2.24;100.00
70930;BME280;58588;48.102;19.682;2022-11-15T00:11:43;100009.47;;;2.22;100.00
70930;BME280;58588;48.102;19.682;2022-11-15T00:14:47;100008.06;;;2.29;100.00
70930;BME280;58588;48.102;19.682;2022-11-15T00:17:49;100009.88;;;2.28;100.00
70930;BME280;58588;48.102;19.682;2022-11-15T00:20:51;100008.41;;;2.13;100.00
70930;BME280;58588;48.102;19.682;2022-11-15T00:23:53;99998.75;;;2.23;100.00
70930;BME280;58588;48.102;19.682;2022-11-15T00:26:55;100000.09;;;2.29;100.00
70930;BME280;58588;48.102;19.682;2022-11-15T00:29:59;99997.28;;;2.30;100.00
70930;BME280;58588;48.102;19.682;2022-11-15T00:33:02;99990.28;;;2.29;100.00
70930;BME280;58588;48.102;19.682;2022-11-15T00:36:07;99994.38;;;2.33;100.00
70930;BME280;58588;48.102;19.682;2022-11-15T00:39:10;99992.09;;;2.29;100.00
70930;BME280;58588;48.102;19.682;2022-11-15T00:42:12;99980.47;;;2.07;100.00
70930;BME280;58588;48.102;19.682;2022-11-15T00:45:15;99981.31;;;2.19;100.00
70930;BME280;58588;48.102;19.682;2022-11-15T00:48:17;99981.09;;;2.22;100.00
70930;BME280;58588;48.102;19.682;2022-11-15T00:51:19;99976.25;;;2.27;100.00
70930;BME280;58588;48.102;19.682;2022-11-15T00:54:21;99973.84;;;2.13;100.00
70930;BME280;58588;48.102;19.682;2022-11-15T00:57:23;99978.44;;;2.22;100.00
70930;BME280;58588;48.102;19.682;2022-11-15T01:00:27;99972.03;;;2.25;100.00
70930;BME280;58588;48.102;19.682;2022-11-15T01:03:32;99973.47;;;2.18;100.00
70930;BME280;58588;48.102;19.682;2022-11-15T01:06:34;99961.88;;;2.07;100.00
70930;BME280;58588;48.102;19.682;2022-11-15T01:09:36;99968.28;;;2.05;100.00
70930;BME280;58588;48.102;19.682;2022-11-15T01:12:38;99966.56;;;2.04;100.00
70930;BME280;58588;48.102;19.682;2022-11-15T01:15:41;99967.41;;;2.15;100.00
70930;BME280;58588;48.102;19.682;2022-11-15T01:18:44;99967.53;;;2.14;100.00
70930;BME280;58588;48.102;19.682;2022-11-15T01:21:48;99960.53;;;2.13;100.00
70930;BME280;58588;48.102;19.682;2022-11-15T01:24:51;99962.00;;;2.17;100.00
70930;BME280;58588;48.102;19.682;2022-11-15T01:27:53;99952.44;;;2.14;100.00
70930;BME280;58588;48.102;19.682;2022-11-15T01:30:58;99947.84;;;2.17;100.00
70930;BME280;58588;48.102;19.682;2022-11-15T01:34:01;99957.16;;;2.11;100.00
70930;BME280;58588;48.102;19.682;2022-11-15T01:37:03;99959.81;;;2.11;100.00
70930;BME280;58588;48.102;19.682;2022-11-15T01:40:05;99960.91;;;2.20;100.00
70930;BME280;58588;48.102;19.682;2022-11-15T01:43:22;99960.41;;;2.26;100.00
70930;BME280;58588;48.102;19.682;2022-11-15T01:46:31;99950.97;;;2.22;100.00
70930;BME280;58588;48.102;19.682;2022-11-15T01:49:38;99950.53;;;2.17;100.00
70930;BME280;58588;48.102;19.682;2022-11-15T01:52:42;99943.13;;;2.20;100.00
70930;BME280;58588;48.102;19.682;2022-11-15T01:55:44;99945.44;;;2.13;100.00
70930;BME280;58588;48.102;19.682;2022-11-15T01:58:46;99943.84;;;2.00;100.00
70930;BME280;58588;48.102;19.682;2022-11-15T02:01:50;99935.63;;;2.03;100.00
70930;BME280;58588;48.102;19.682;2022-11-15T02:04:52;99933.31;;;2.09;100.00
70930;BME280;58588;48.102;19.682;2022-11-15T02:07:54;99932.13;;;2.02;100.00
70930;BME280;58588;48.102;19.682;2022-11-15T02:10:56;99928.13;;;2.08;100.00
70930;BME280;58588;48.102;19.682;2022-11-15T02:13:59;99919.69;;;2.03;100.00
70930;BME280;58588;48.102;19.682;2022-11-15T02:17:13;99918.25;;;1.87;100.00
70930;BME280;58588;48.102;19.682;2022-11-15T02:20:38;99921.84;;;1.64;100.00
70930;BME280;58588;48.102;19.682;2022-11-15T02:24:10;99917.38;;;1.65;100.00
70930;BME280;58588;48.102;19.682;2022-11-15T02:27:50;99926.44;;;1.84;100.00
70930;BME280;58588;48.102;19.682;2022-11-15T02:31:03;99920.28;;;1.95;100.00
70930;BME280;58588;48.102;19.682;2022-11-15T02:34:12;99928.25;;;1.84;100.00
70930;BME280;58588;48.102;19.682;2022-11-15T02:37:23;99921.97;;;1.85;100.00
70930;BME280;58588;48.102;19.682;2022-11-15T02:40:37;99926.81;;;1.91;100.00
70930;BME280;58588;48.102;19.682;2022-11-15T02:43:46;99922.94;;;1.95;100.00
70930;BME280;58588;48.102;19.682;2022-11-15T02:47:03;99920.16;;;1.97;100.00
70930;BME280;58588;48.102;19.682;2022-11-15T02:50:18;99920.41;;;2.05;100.00
70930;BME280;58588;48.102;19.682;2022-11-15T02:53:24;99915.94;;;2.05;100.00
70930;BME280;58588;48.102;19.682;2022-11-15T02:56:26;99917.63;;;2.06;100.00
70930;BME280;58588;48.102;19.682;2022-11-15T03:00:04;99911.81;;;2.01;100.00
70930;BME280;58588;48.102;19.682;2022-11-15T03:03:19;99912.81;;;2.11;100.00
70930;BME280;58588;48.102;19.682;2022-11-15T03:06:32;99920.50;;;2.03;100.00
70930;BME280;58588;48.102;19.682;2022-11-15T03:09:41;99919.69;;;2.14;100.00
70930;BME280;58588;48.102;19.682;2022-11-15T03:12:50;99911.91;;;2.33;100.00
70930;BME280;58588;48.102;19.682;2022-11-15T03:16:01;99924.16;;;2.25;100.00
70930;BME280;58588;48.102;19.682;2022-11-15T03:19:11;99906.22;;;2.38;100.00
70930;BME280;58588;48.102;19.682;2022-11-15T03:22:16;99907.69;;;2.42;100.00
70930;BME280;58588;48.102;19.682;2022-11-15T03:25:21;99908.25;;;2.57;100.00
70930;BME280;58588;48.102;19.682;2022-11-15T03:28:29;99912.50;;;2.48;100.00
70930;BME280;58588;48.102;19.682;2022-11-15T03:31:37;99908.59;;;2.63;100.00
70930;BME280;58588;48.102;19.682;2022-11-15T03:34:55;99902.19;;;2.66;100.00
70930;BME280;58588;48.102;19.682;2022-11-15T03:38:03;99887.19;;;2.65;100.00
70930;BME280;58588;48.102;19.682;2022-11-15T03:41:14;99888.22;;;2.41;100.00
70930;BME280;58588;48.102;19.682;2022-11-15T03:44:30;99877.53;;;2.64;100.00
70930;BME280;58588;48.102;19.682;2022-11-15T03:47:39;99878.47;;;2.63;100.00
70930;BME280;58588;48.102;19.682;2022-11-15T03:50:44;99873.19;;;2.52;100.00
70930;BME280;58588;48.102;19.682;2022-11-15T03:53:47;99870.88;;;2.58;100.00
70930;BME280;58588;48.102;19.682;2022-11-15T03:56:49;99875.00;;;2.51;100.00
70930;BME280;58588;48.102;19.682;2022-11-15T03:59:51;99871.59;;;2.60;100.00
70930;BME280;58588;48.102;19.682;2022-11-15T04:02:53;99870.41;;;2.53;100.00
70930;BME280;58588;48.102;19.682;2022-11-15T04:05:56;99864.66;;;2.69;100.00
70930;BME280;58588;48.102;19.682;2022-11-15T04:08:58;99866.44;;;2.80;100.00
70930;BME280;58588;48.102;19.682;2022-11-15T04:12:00;99855.56;;;2.83;100.00
70930;BME280;58588;48.102;19.682;2022-11-15T04:15:05;99846.13;;;3.00;100.00
70930;BME280;58588;48.102;19.682;2022-11-15T04:18:10;99851.31;;;2.80;100.00
70930;BME280;58588;48.102;19.682;2022-11-15T04:21:13;99855.50;;;2.94;100.00
70930;BME280;58588;48.102;19.682;2022-11-15T04:24:32;99852.63;;;2.86;100.00
70930;BME280;58588;48.102;19.682;2022-11-15T04:27:34;99845.28;;;2.99;100.00
70930;BME280;58588;48.102;19.682;2022-11-15T04:30:36;99839.56;;;3.04;100.00
70930;BME280;58588;48.102;19.682;2022-11-15T04:33:38;99845.41;;;2.98;100.00
70930;BME280;58588;48.102;19.682;2022-11-15T04:36:42;99831.78;;;2.91;100.00
70930;BME280;58588;48.102;19.682;2022-11-15T04:40:01;99835.56;;;3.09;100.00
70930;BME280;58588;48.102;19.682;2022-11-15T04:43:03;99831.38;;;3.16;100.00
70930;BME280;58588;48.102;19.682;2022-11-15T04:46:05;99830.34;;;3.29;100.00
70930;BME280;58588;48.102;19.682;2022-11-15T04:49:07;99822.34;;;3.29;100.00
70930;BME280;58588;48.102;19.682;2022-11-15T04:52:10;99816.91;;;3.30;100.00
70930;BME280;58588;48.102;19.682;2022-11-15T04:55:12;99815.31;;;3.18;100.00
70930;BME280;58588;48.102;19.682;2022-11-15T04:58:14;99827.69;;;3.08;100.00
70930;BME280;58588;48.102;19.682;2022-11-15T05:01:17;99822.19;;;3.20;100.00
70930;BME280;58588;48.102;19.682;2022-11-15T05:04:19;99831.00;;;3.21;100.00
70930;BME280;58588;48.102;19.682;2022-11-15T05:07:22;99818.53;;;3.21;100.00
70930;BME280;58588;48.102;19.682;2022-11-15T05:10:24;99815.69;;;3.13;100.00
70930;BME280;58588;48.102;19.682;2022-11-15T05:13:26;99816.00;;;3.20;100.00
70930;BME280;58588;48.102;19.682;2022-11-15T05:16:28;99806.34;;;3.19;100.00
70930;BME280;58588;48.102;19.682;2022-11-15T05:19:30;99803.06;;;3.36;100.00
70930;BME280;58588;48.102;19.682;2022-11-15T05:22:33;99796.38;;;3.42;100.00
70930;BME280;58588;48.102;19.682;2022-11-15T05:25:36;99801.28;;;3.46;100.00
70930;BME280;58588;48.102;19.682;2022-11-15T05:28:38;99794.13;;;3.47;100.00
70930;BME280;58588;48.102;19.682;2022-11-15T05:31:40;99793.59;;;3.53;100.00
70930;BME280;58588;48.102;19.682;2022-11-15T05:34:43;99795.50;;;3.41;100.00
70930;BME280;58588;48.102;19.682;2022-11-15T05:37:47;99793.56;;;3.43;100.00
70930;BME280;58588;48.102;19.682;2022-11-15T05:40:50;99793.88;;;3.50;100.00
70930;BME280;58588;48.102;19.682;2022-11-15T05:43:53;99794.44;;;3.54;100.00
70930;BME280;58588;48.102;19.682;2022-11-15T05:46:56;99805.97;;;3.54;100.00
70930;BME280;58588;48.102;19.682;2022-11-15T05:49:58;99795.84;;;3.58;100.00
70930;BME280;58588;48.102;19.682;2022-11-15T05:53:02;99784.66;;;3.64;100.00
70930;BME280;58588;48.102;19.682;2022-11-15T05:56:05;99777.06;;;3.29;100.00
70930;BME280;58588;48.102;19.682;2022-11-15T05:59:08;99775.91;;;3.21;100.00
70930;BME280;58588;48.102;19.682;2022-11-15T06:02:11;99796.44;;;3.31;100.00
70930;BME280;58588;48.102;19.682;2022-11-15T06:05:13;99786.13;;;3.47;100.00
70930;BME280;58588;48.102;19.682;2022-11-15T06:08:16;99797.84;;;3.65;100.00
70930;BME280;58588;48.102;19.682;2022-11-15T06:11:18;99798.72;;;3.66;100.00
70930;BME280;58588;48.102;19.682;2022-11-15T06:14:20;99799.31;;;3.79;100.00
70930;BME280;58588;48.102;19.682;2022-11-15T06:17:22;99792.19;;;3.89;100.00
70930;BME280;58588;48.102;19.682;2022-11-15T06:20:24;99785.16;;;3.88;100.00
70930;BME280;58588;48.102;19.682;2022-11-15T06:23:32;99782.78;;;3.95;100.00
70930;BME280;58588;48.102;19.682;2022-11-15T06:26:34;99791.22;;;3.90;100.00
70930;BME280;58588;48.102;19.682;2022-11-15T06:29:36;99800.03;;;3.81;100.00
70930;BME280;58588;48.102;19.682;2022-11-15T06:32:38;99799.78;;;3.94;100.00
70930;BME280;58588;48.102;19.682;2022-11-15T06:35:40;99804.56;;;4.00;100.00
70930;BME280;58588;48.102;19.682;2022-11-15T06:38:44;99823.38;;;3.98;100.00
70930;BME280;58588;48.102;19.682;2022-11-15T06:41:46;99812.19;;;4.14;100.00
70930;BME280;58588;48.102;19.682;2022-11-15T06:44:48;99793.09;;;4.09;100.00
70930;BME280;58588;48.102;19.682;2022-11-15T06:47:50;99798.28;;;4.11;100.00
70930;BME280;58588;48.102;19.682;2022-11-15T06:50:52;99799.59;;;4.26;100.00
70930;BME280;58588;48.102;19.682;2022-11-15T06:53:56;99811.66;;;4.20;100.00
70930;BME280;58588;48.102;19.682;2022-11-15T06:56:58;99819.81;;;4.28;100.00
70930;BME280;58588;48.102;19.682;2022-11-15T07:00:00;99814.22;;;4.51;100.00
70930;BME280;58588;48.102;19.682;2022-11-15T07:03:02;99811.00;;;4.57;100.00
70930;BME280;58588;48.102;19.682;2022-11-15T07:06:04;99798.47;;;4.67;100.00
70930;BME280;58588;48.102;19.682;2022-11-15T07:09:08;99790.59;;;4.66;100.00
70930;BME280;58588;48.102;19.682;2022-11-15T07:12:10;99807.34;;;4.58;100.00
70930;BME280;58588;48.102;19.682;2022-11-15T07:15:12;99794.41;;;4.82;100.00
70930;BME280;58588;48.102;19.682;2022-11-15T07:18:14;99785.69;;;4.80;100.00
70930;BME280;58588;48.102;19.682;2022-11-15T07:21:16;99769.78;;;4.89;100.00
70930;BME280;58588;48.102;19.682;2022-11-15T07:24:19;99784.69;;;4.72;100.00
70930;BME280;58588;48.102;19.682;2022-11-15T07:27:21;99782.72;;;4.83;100.00
70930;BME280;58588;48.102;19.682;2022-11-15T07:30:24;99787.34;;;4.91;100.00
70930;BME280;58588;48.102;19.682;2022-11-15T07:33:26;99784.56;;;4.93;100.00
70930;BME280;58588;48.102;19.682;2022-11-15T07:36:28;99777.66;;;5.00;100.00
70930;BME280;58588;48.102;19.682;2022-11-15T07:39:31;99772.03;;;4.93;100.00
70930;BME280;58588;48.102;19.682;2022-11-15T07:42:33;99777.50;;;5.01;100.00
70930;BME280;58588;48.102;19.682;2022-11-15T07:45:52;99770.72;;;5.17;100.00
70930;BME280;58588;48.102;19.682;2022-11-15T07:48:55;99772.59;;;5.44;100.00
70930;BME280;58588;48.102;19.682;2022-11-15T07:51:57;99762.66;;;5.63;100.00
70930;BME280;58588;48.102;19.682;2022-11-15T07:55:00;99753.97;;;5.61;100.00
70930;BME280;58588;48.102;19.682;2022-11-15T07:58:04;99759.41;;;5.70;100.00
70930;BME280;58588;48.102;19.682;2022-11-15T08:01:07;99767.78;;;5.84;100.00
70930;BME280;58588;48.102;19.682;2022-11-15T08:04:10;99771.25;;;5.67;100.00
70930;BME280;58588;48.102;19.682;2022-11-15T08:07:12;99762.19;;;5.78;100.00
70930;BME280;58588;48.102;19.682;2022-11-15T08:10:16;99758.31;;;5.90;100.00
70930;BME280;58588;48.102;19.682;2022-11-15T08:13:20;99746.50;;;5.93;100.00
70930;BME280;58588;48.102;19.682;2022-11-15T08:16:22;99731.53;;;6.00;100.00
70930;BME280;58588;48.102;19.682;2022-11-15T08:19:24;99731.88;;;6.14;100.00
70930;BME280;58588;48.102;19.682;2022-11-15T08:22:26;99728.97;;;6.26;100.00
70930;BME280;58588;48.102;19.682;2022-11-15T08:25:32;99717.94;;;6.47;100.00
70930;BME280;58588;48.102;19.682;2022-11-15T08:28:34;99714.88;;;6.41;100.00
70930;BME280;58588;48.102;19.682;2022-11-15T08:31:37;99715.19;;;6.38;100.00
70930;BME280;58588;48.102;19.682;2022-11-15T08:34:39;99707.09;;;6.30;100.00
70930;BME280;58588;48.102;19.682;2022-11-15T08:37:41;99709.53;;;6.41;100.00
70930;BME280;58588;48.102;19.682;2022-11-15T08:40:44;99710.75;;;6.47;100.00
70930;BME280;58588;48.102;19.682;2022-11-15T08:43:46;99724.28;;;6.63;100.00
70930;BME280;58588;48.102;19.682;2022-11-15T08:46:48;99724.72;;;6.77;100.00
70930;BME280;58588;48.102;19.682;2022-11-15T08:49:50;99729.81;;;6.88;100.00
70930;BME280;58588;48.102;19.682;2022-11-15T08:52:52;99729.78;;;6.80;100.00
70930;BME280;58588;48.102;19.682;2022-11-15T08:55:55;99728.72;;;6.98;100.00
70930;BME280;58588;48.102;19.682;2022-11-15T08:58:57;99718.06;;;7.07;100.00
70930;BME280;58588;48.102;19.682;2022-11-15T09:01:59;99721.38;;;7.27;100.00
70930;BME280;58588;48.102;19.682;2022-11-15T09:05:01;99716.59;;;7.38;100.00
70930;BME280;58588;48.102;19.682;2022-11-15T09:08:04;99715.22;;;7.34;100.00
70930;BME280;58588;48.102;19.682;2022-11-15T09:11:09;99715.88;;;7.36;100.00
70930;BME280;58588;48.102;19.682;2022-11-15T09:14:11;99713.25;;;7.44;100.00
70930;BME280;58588;48.102;19.682;2022-11-15T09:17:13;99696.97;;;7.38;100.00
70930;BME280;58588;48.102;19.682;2022-11-15T09:20:15;99696.34;;;7.52;100.00
70930;BME280;58588;48.102;19.682;2022-11-15T09:23:17;99689.34;;;7.59;100.00
70930;BME280;58588;48.102;19.682;2022-11-15T09:26:21;99693.22;;;7.65;100.00
70930;BME280;58588;48.102;19.682;2022-11-15T09:29:23;99684.34;;;7.72;100.00
70930;BME280;58588;48.102;19.682;2022-11-15T09:32:28;99692.78;;;7.86;100.00
70930;BME280;58588;48.102;19.682;2022-11-15T09:35:31;99692.97;;;7.92;100.00
70930;BME280;58588;48.102;19.682;2022-11-15T09:38:33;99694.97;;;7.82;100.00
70930;BME280;58588;48.102;19.682;2022-11-15T09:41:50;99684.22;;;7.82;100.00
70930;BME280;58588;48.102;19.682;2022-11-15T09:45:10;99663.28;;;8.02;100.00
70930;BME280;58588;48.102;19.682;2022-11-15T09:48:25;99665.47;;;7.98;100.00
70930;BME280;58588;48.102;19.682;2022-11-15T09:51:34;99666.66;;;8.20;100.00
70930;BME280;58588;48.102;19.682;2022-11-15T09:54:49;99656.97;;;8.44;100.00
70930;BME280;58588;48.102;19.682;2022-11-15T09:57:57;99655.13;;;8.44;100.00
70930;BME280;58588;48.102;19.682;2022-11-15T10:01:14;99659.50;;;8.53;100.00
70930;BME280;58588;48.102;19.682;2022-11-15T10:04:18;99658.31;;;8.64;100.00
70930;BME280;58588;48.102;19.682;2022-11-15T10:07:25;99654.28;;;8.60;100.00
70930;BME280;58588;48.102;19.682;2022-11-15T10:10:31;99653.94;;;8.63;100.00
70930;BME280;58588;48.102;19.682;2022-11-15T10:13:41;99646.91;;;8.54;100.00
70930;BME280;58588;48.102;19.682;2022-11-15T10:17:10;99635.47;;;8.44;100.00
70930;BME280;58588;48.102;19.682;2022-11-15T10:20:17;99628.94;;;8.54;100.00
70930;BME280;58588;48.102;19.682;2022-11-15T10:23:22;99623.72;;;8.61;100.00
70930;BME280;58588;48.102;19.682;2022-11-15T10:26:24;99615.66;;;8.61;100.00
70930;BME280;58588;48.102;19.682;2022-11-15T10:29:28;99623.72;;;8.61;100.00
70930;BME280;58588;48.102;19.682;2022-11-15T10:32:33;99606.38;;;8.80;100.00
70930;BME280;58588;48.102;19.682;2022-11-15T10:35:36;99603.03;;;8.78;100.00
70930;BME280;58588;48.102;19.682;2022-11-15T10:38:52;99596.50;;;8.72;100.00
70930;BME280;58588;48.102;19.682;2022-11-15T10:41:54;99591.63;;;8.68;100.00
70930;BME280;58588;48.102;19.682;2022-11-15T10:44:58;99597.84;;;8.60;100.00
70930;BME280;58588;48.102;19.682;2022-11-15T10:48:20;99602.72;;;8.65;100.00
70930;BME280;58588;48.102;19.682;2022-11-15T10:51:26;99591.28;;;8.63;100.00
70930;BME280;58588;48.102;19.682;2022-11-15T10:54:33;99585.91;;;8.71;100.00
70930;BME280;58588;48.102;19.682;2022-11-15T10:57:37;99586.03;;;8.85;100.00
70930;BME280;58588;48.102;19.682;2022-11-15T11:00:41;99579.31;;;8.90;100.00
70930;BME280;58588;48.102;19.682;2022-11-15T11:03:44;99582.13;;;8.96;100.00
70930;BME280;58588;48.102;19.682;2022-11-15T11:06:47;99566.50;;;9.00;100.00
70930;BME280;58588;48.102;19.682;2022-11-15T11:09:57;99568.19;;;9.01;100.00
70930;BME280;58588;48.102;19.682;2022-11-15T11:13:13;99560.59;;;9.04;100.00
70930;BME280;58588;48.102;19.682;2022-11-15T11:16:41;99553.22;;;8.98;100.00
70930;BME280;58588;48.102;19.682;2022-11-15T11:19:56;99558.06;;;9.03;100.00
70930;BME280;58588;48.102;19.682;2022-11-15T11:23:33;99560.44;;;8.98;100.00
70930;BME280;58588;48.102;19.682;2022-11-15T11:26:39;99561.31;;;8.90;100.00
70930;BME280;58588;48.102;19.682;2022-11-15T11:29:53;99554.25;;;8.97;100.00
70930;BME280;58588;48.102;19.682;2022-11-15T11:33:10;99550.56;;;8.90;100.00
70930;BME280;58588;48.102;19.682;2022-11-15T11:36:23;99549.38;;;8.93;100.00
70930;BME280;58588;48.102;19.682;2022-11-15T11:39:33;99549.91;;;8.88;100.00
70930;BME280;58588;48.102;19.682;2022-11-15T11:42:49;99543.75;;;8.71;100.00
70930;BME280;58588;48.102;19.682;2022-11-15T11:46:13;99539.75;;;8.59;100.00
70930;BME280;58588;48.102;19.682;2022-11-15T11:49:24;99540.69;;;8.74;100.00
70930;BME280;58588;48.102;19.682;2022-11-15T11:52:30;99538.19;;;8.73;100.00
70930;BME280;58588;48.102;19.682;2022-11-15T11:55:37;99535.66;;;8.79;100.00
70930;BME280;58588;48.102;19.682;2022-11-15T11:58:44;99536.50;;;8.80;100.00
70930;BME280;58588;48.102;19.682;2022-11-15T12:01:47;99532.97;;;8.79;100.00
70930;BME280;58588;48.102;19.682;2022-11-15T12:04:51;99530.47;;;8.78;100.00
70930;BME280;58588;48.102;19.682;2022-11-15T12:07:59;99525.78;;;8.72;100.00
70930;BME280;58588;48.102;19.682;2022-11-15T12:11:09;99520.88;;;8.75;100.00
70930;BME280;58588;48.102;19.682;2022-11-15T12:14:24;99512.34;;;8.72;100.00
70930;BME280;58588;48.102;19.682;2022-11-15T12:17:29;99508.13;;;8.69;100.00
70930;BME280;58588;48.102;19.682;2022-11-15T12:20:39;99509.28;;;8.75;100.00
70930;BME280;58588;48.102;19.682;2022-11-15T12:23:46;99505.16;;;8.64;100.00
70930;BME280;58588;48.102;19.682;2022-11-15T12:26:54;99497.75;;;8.66;100.00
70930;BME280;58588;48.102;19.682;2022-11-15T12:30:01;99493.38;;;8.65;100.00
70930;BME280;58588;48.102;19.682;2022-11-15T12:36:48;99487.19;;;8.56;100.00
70930;BME280;58588;48.102;19.682;2022-11-15T12:40:24;99490.00;;;8.63;100.00
70930;BME280;58588;48.102;19.682;2022-11-15T12:43:38;99477.28;;;8.57;100.00
70930;BME280;58588;48.102;19.682;2022-11-15T12:47:02;99472.13;;;8.47;100.00
70930;BME280;58588;48.102;19.682;2022-11-15T12:50:04;99473.28;;;8.53;100.00
70930;BME280;58588;48.102;19.682;2022-11-15T12:53:31;99467.53;;;8.56;100.00
70930;BME280;58588;48.102;19.682;2022-11-15T12:56:33;99458.63;;;8.64;100.00
70930;BME280;58588;48.102;19.682;2022-11-15T12:59:49;99453.59;;;8.61;100.00
70930;BME280;58588;48.102;19.682;2022-11-15T13:03:19;99459.38;;;8.41;100.00
70930;BME280;58588;48.102;19.682;2022-11-15T13:06:38;99467.59;;;8.48;100.00
70930;BME280;58588;48.102;19.682;2022-11-15T13:10:00;99452.75;;;8.60;100.00
70930;BME280;58588;48.102;19.682;2022-11-15T13:13:03;99451.78;;;8.53;100.00
70930;BME280;58588;48.102;19.682;2022-11-15T13:16:06;99447.06;;;8.55;100.00
70930;BME280;58588;48.102;19.682;2022-11-15T13:19:10;99439.38;;;8.52;100.00
70930;BME280;58588;48.102;19.682;2022-11-15T13:22:12;99438.34;;;8.53;100.00
70930;BME280;58588;48.102;19.682;2022-11-15T13:25:53;99437.47;;;8.61;100.00
70930;BME280;58588;48.102;19.682;2022-11-15T13:28:57;99421.69;;;8.57;100.00
70930;BME280;58588;48.102;19.682;2022-11-15T13:32:01;99430.44;;;8.51;100.00
70930;BME280;58588;48.102;19.682;2022-11-15T13:35:06;99432.28;;;8.51;100.00
70930;BME280;58588;48.102;19.682;2022-11-15T13:38:18;99416.34;;;8.49;100.00
70930;BME280;58588;48.102;19.682;2022-11-15T13:41:23;99416.16;;;8.51;100.00
70930;BME280;58588;48.102;19.682;2022-11-15T13:44:27;99422.94;;;8.39;100.00
70930;BME280;58588;48.102;19.682;2022-11-15T13:47:30;99424.28;;;8.35;100.00
70930;BME280;58588;48.102;19.682;2022-11-15T13:50:34;99416.41;;;8.41;100.00
70930;BME280;58588;48.102;19.682;2022-11-15T13:53:40;99414.88;;;8.39;100.00
70930;BME280;58588;48.102;19.682;2022-11-15T13:56:47;99424.63;;;8.31;100.00
70930;BME280;58588;48.102;19.682;2022-11-15T13:59:52;99425.81;;;8.21;100.00
70930;BME280;58588;48.102;19.682;2022-11-15T14:02:55;99420.63;;;8.36;100.00
70930;BME280;58588;48.102;19.682;2022-11-15T14:06:08;99413.41;;;8.36;100.00
70930;BME280;58588;48.102;19.682;2022-11-15T14:09:31;99405.84;;;8.40;100.00
70930;BME280;58588;48.102;19.682;2022-11-15T14:12:38;99403.63;;;8.35;100.00
70930;BME280;58588;48.102;19.682;2022-11-15T14:15:40;99388.22;;;8.29;100.00
70930;BME280;58588;48.102;19.682;2022-11-15T14:18:45;99387.19;;;8.38;100.00
70930;BME280;58588;48.102;19.682;2022-11-15T14:22:13;99378.97;;;8.40;100.00
70930;BME280;58588;48.102;19.682;2022-11-15T14:25:18;99367.03;;;8.42;100.00
70930;BME280;58588;48.102;19.682;2022-11-15T14:28:30;99363.66;;;8.48;100.00
70930;BME280;58588;48.102;19.682;2022-11-15T14:31:36;99366.50;;;8.47;100.00
70930;BME280;58588;48.102;19.682;2022-11-15T14:34:41;99368.22;;;8.40;100.00
70930;BME280;58588;48.102;19.682;2022-11-15T14:37:43;99353.22;;;8.45;100.00
70930;BME280;58588;48.102;19.682;2022-11-15T14:40:45;99351.25;;;8.39;100.00
70930;BME280;58588;48.102;19.682;2022-11-15T14:43:49;99348.09;;;8.36;100.00
70930;BME280;58588;48.102;19.682;2022-11-15T14:46:51;99338.59;;;8.09;100.00
70930;BME280;58588;48.102;19.682;2022-11-15T14:49:53;99339.16;;;8.04;100.00
70930;BME280;58588;48.102;19.682;2022-11-15T14:52:55;99333.78;;;7.96;100.00
70930;BME280;58588;48.102;19.682;2022-11-15T14:55:57;99328.22;;;7.97;100.00
70930;BME280;58588;48.102;19.682;2022-11-15T14:59:00;99328.88;;;8.16;100.00
70930;BME280;58588;48.102;19.682;2022-11-15T15:02:04;99320.31;;;8.12;100.00
70930;BME280;58588;48.102;19.682;2022-11-15T15:05:15;99327.81;;;8.25;100.00
70930;BME280;58588;48.102;19.682;2022-11-15T15:08:17;99320.72;;;8.32;100.00
70930;BME280;58588;48.102;19.682;2022-11-15T15:11:21;99313.72;;;8.23;100.00
70930;BME280;58588;48.102;19.682;2022-11-15T15:14:24;99310.84;;;8.24;100.00
70930;BME280;58588;48.102;19.682;2022-11-15T15:17:26;99299.28;;;8.24;100.00
70930;BME280;58588;48.102;19.682;2022-11-15T15:20:29;99300.25;;;8.31;100.00
70930;BME280;58588;48.102;19.682;2022-11-15T15:23:31;99297.72;;;8.38;100.00
70930;BME280;58588;48.102;19.682;2022-11-15T15:26:33;99286.81;;;8.31;100.00
70930;BME280;58588;48.102;19.682;2022-11-15T15:29:38;99291.84;;;8.34;100.00
70930;BME280;58588;48.102;19.682;2022-11-15T15:32:40;99294.38;;;8.36;100.00
70930;BME280;58588;48.102;19.682;2022-11-15T15:35:42;99291.84;;;8.34;100.00
70930;BME280;58588;48.102;19.682;2022-11-15T15:38:44;99283.63;;;8.36;100.00
70930;BME280;58588;48.102;19.682;2022-11-15T15:41:47;99284.97;;;8.40;100.00
70930;BME280;58588;48.102;19.682;2022-11-15T15:44:50;99285.47;;;8.35;100.00
70930;BME280;58588;48.102;19.682;2022-11-15T15:47:52;99279.41;;;8.33;100.00
70930;BME280;58588;48.102;19.682;2022-11-15T15:50:54;99279.13;;;8.28;100.00
70930;BME280;58588;48.102;19.682;2022-11-15T15:53:56;99278.13;;;8.21;100.00
70930;BME280;58588;48.102;19.682;2022-11-15T15:56:58;99281.97;;;8.26;100.00
70930;BME280;58588;48.102;19.682;2022-11-15T16:00:02;99281.31;;;8.24;100.00
70930;BME280;58588;48.102;19.682;2022-11-15T16:03:04;99274.75;;;8.27;100.00
70930;BME280;58588;48.102;19.682;2022-11-15T16:06:36;99276.44;;;8.28;100.00
70930;BME280;58588;48.102;19.682;2022-11-15T16:09:39;99265.72;;;8.20;100.00
70930;BME280;58588;48.102;19.682;2022-11-15T16:12:58;99278.75;;;8.31;100.00
70930;BME280;58588;48.102;19.682;2022-11-15T16:16:02;99284.31;;;8.29;100.00
70930;BME280;58588;48.102;19.682;2022-11-15T16:19:04;99270.22;;;8.27;100.00